Time;durP1;ratioP1;P1;durP2;ratioP2;P2;SDS_P1;SDS_P2;PMS_P1;PMS_P2;Temp;Humidity;BMP_temperature;BMP_pressure;BME280_temperature;BME280_humidity;BME280_pressure;Samples;Min_cycle;Max_cycle;Signal;HPM_P1;HPM_P2
2023/04/21 00:00:01;;;;;;;11.10;5.10;;;;;;;4.86;70.61;95355.75;107032;1275;22523;-67
2023/04/21 00:02:29;;;;;;;9.50;4.10;;;;;;;4.81;71.10;95352.44;106740;1274;24374;-67
2023/04/21 00:04:57;;;;;;;10.20;4.70;;;;;;;4.71;71.34;95357.33;106698;1275;23885;-67
2023/04/21 00:07:25;;;;;;;16.60;5.60;;;;;;;4.64;71.34;95354.71;106673;1275;24197;-67
2023/04/21 00:09:54;;;;;;;13.10;5.10;;;;;;;4.58;71.57;95352.96;106722;1274;22627;-67
2023/04/21 00:12:22;;;;;;;13.10;5.20;;;;;;;4.51;71.44;95350.17;106682;1274;22567;-67
2023/04/21 00:14:50;;;;;;;14.20;4.60;;;;;;;4.47;71.43;95354.00;106703;1275;24208;-67
2023/04/21 00:17:18;;;;;;;20.50;6.30;;;;;;;4.40;71.56;95354.52;106690;1272;25365;-67
2023/04/21 00:19:46;;;;;;;10.70;4.50;;;;;;;4.38;71.55;95355.03;106578;1275;25258;-67
2023/04/21 00:22:15;;;;;;;20.00;4.60;;;;;;;4.34;72.29;95355.39;106643;1275;22662;-67
2023/04/21 00:24:44;;;;;;;15.30;3.60;;;;;;;4.29;72.60;95352.05;106692;1275;24377;-67
2023/04/21 00:27:14;;;;;;;11.80;3.80;;;;;;;4.27;73.07;95349.80;106669;1275;22777;-67
2023/04/21 00:29:42;;;;;;;14.40;4.00;;;;;;;4.25;73.31;95353.45;106693;1275;22810;-67
2023/04/21 00:32:11;;;;;;;9.20;3.40;;;;;;;4.27;73.26;95352.23;106718;1275;25398;-67
2023/04/21 00:34:40;;;;;;;11.80;3.80;;;;;;;4.29;73.54;95348.59;106623;1275;22513;-67
2023/04/21 00:37:08;;;;;;;18.20;3.50;;;;;;;4.32;73.49;95350.16;106824;1274;22716;-67
2023/04/21 00:39:36;;;;;;;8.80;3.60;;;;;;;4.38;73.39;95352.59;106743;1275;22524;-67
2023/04/21 00:42:04;;;;;;;14.20;3.70;;;;;;;4.38;73.18;95351.02;106744;1275;24306;-67
2023/04/21 00:44:35;;;;;;;14.10;3.70;;;;;;;4.39;73.42;95348.41;106758;1275;24201;-67
2023/04/21 00:47:04;;;;;;;19.80;4.50;;;;;;;4.45;73.45;95344.23;106705;1275;25294;-67
2023/04/21 00:49:32;;;;;;;11.30;3.60;;;;;;;4.44;73.43;95347.20;106640;1275;23880;-67
2023/04/21 00:52:03;;;;;;;17.40;3.90;;;;;;;4.45;73.67;95343.38;106903;1275;22718;-67
2023/04/21 00:54:34;;;;;;;11.20;4.00;;;;;;;4.40;73.72;95343.71;106663;1275;24331;-67
2023/04/21 00:57:02;;;;;;;11.70;3.80;;;;;;;4.33;73.87;95344.75;106675;1275;22649;-67
2023/04/21 00:59:30;;;;;;;14.30;4.10;;;;;;;4.27;74.02;95346.84;106779;1275;22557;-67
2023/04/21 01:01:59;;;;;;;15.30;5.40;;;;;;;4.21;74.09;95349.44;106814;1275;22514;-67
2023/04/21 01:04:28;;;;;;;14.60;5.40;;;;;;;4.22;74.18;95345.95;106696;1275;24374;-67
2023/04/21 01:06:57;;;;;;;16.40;4.80;;;;;;;4.20;74.58;95341.61;106777;1275;22509;-67
2023/04/21 01:09:26;;;;;;;12.20;5.00;;;;;;;4.04;74.18;95342.60;106634;1275;24248;-67
2023/04/21 01:12:04;;;;;;;11.00;4.60;;;;;;;3.97;74.38;95343.98;106621;1265;24216;-67
2023/04/21 01:14:39;;;;;;;12.60;5.20;;;;;;;3.94;74.64;95343.45;106813;1275;22532;-67
2023/04/21 01:17:07;;;;;;;13.70;4.90;;;;;;;3.94;75.54;95346.42;106747;1275;22761;-67
2023/04/21 01:19:39;;;;;;;11.30;4.80;;;;;;;3.87;75.36;95350.91;106796;1275;22643;-67
2023/04/21 01:22:12;;;;;;;13.40;5.50;;;;;;;3.86;75.05;95348.13;106732;1275;22515;-67
2023/04/21 01:24:42;;;;;;;13.20;5.40;;;;;;;3.87;75.52;95347.25;106800;1275;22640;-67
2023/04/21 01:27:18;;;;;;;13.30;6.00;;;;;;;3.85;75.72;95353.34;106715;1275;22572;-67
2023/04/21 01:29:52;;;;;;;11.90;6.10;;;;;;;3.86;75.69;95351.95;106831;1275;22534;-67
2023/04/21 01:32:23;;;;;;;14.50;5.40;;;;;;;3.89;75.47;95348.30;106664;1275;24495;-67
2023/04/21 01:34:54;;;;;;;8.60;4.70;;;;;;;3.88;75.05;95351.95;106799;1274;24228;-67
2023/04/21 01:37:26;;;;;;;14.80;4.70;;;;;;;3.91;75.19;95354.39;107052;1275;22609;-67
2023/04/21 01:39:57;;;;;;;8.90;4.60;;;;;;;3.94;75.31;95355.45;106818;1275;24245;-67
2023/04/21 01:42:27;;;;;;;10.90;5.60;;;;;;;3.91;75.30;95357.17;106720;1275;22639;-67
2023/04/21 01:44:55;;;;;;;11.40;5.80;;;;;;;3.90;76.59;95358.92;106600;1275;25214;-67
2023/04/21 01:47:24;;;;;;;10.70;4.40;;;;;;;3.83;77.30;95355.59;106758;1275;24196;-67
2023/04/21 01:49:52;;;;;;;10.40;5.10;;;;;;;3.75;77.01;95358.00;106610;1275;22622;-67
2023/04/21 01:52:20;;;;;;;9.30;4.50;;;;;;;3.71;77.16;95362.50;106659;1275;22529;-67
2023/04/21 01:54:48;;;;;;;10.00;4.70;;;;;;;3.70;76.53;95361.47;106697;1275;22572;-67
2023/04/21 01:57:17;;;;;;;10.40;5.10;;;;;;;3.67;76.33;95363.01;106690;1275;25057;-67
2023/04/21 01:59:47;;;;;;;11.90;4.90;;;;;;;3.65;76.70;95360.75;106796;1275;25507;-67
2023/04/21 02:02:15;;;;;;;12.80;5.30;;;;;;;3.64;77.11;95356.20;106656;1275;24520;-67
2023/04/21 02:04:43;;;;;;;12.30;5.10;;;;;;;3.63;77.62;95359.52;106713;1254;24231;-67
2023/04/21 02:07:12;;;;;;;9.70;4.70;;;;;;;3.58;77.77;95360.55;106615;1275;22526;-67
2023/04/21 02:09:41;;;;;;;11.50;5.50;;;;;;;3.51;77.14;95359.10;106813;1275;25471;-67
2023/04/21 02:12:10;;;;;;;12.00;5.20;;;;;;;3.47;77.07;95356.31;106747;1275;22523;-67
2023/04/21 02:14:42;;;;;;;11.60;5.10;;;;;;;3.44;77.48;95354.90;106818;1275;25533;-66
2023/04/21 02:17:10;;;;;;;8.90;4.20;;;;;;;3.40;77.18;95357.33;106409;1275;24065;-67
2023/04/21 02:19:39;;;;;;;13.40;6.40;;;;;;;3.37;77.56;95358.69;106688;1275;24234;-67
2023/04/21 02:22:07;;;;;;;15.70;7.10;;;;;;;3.34;77.48;95355.55;106706;1274;22589;-68
2023/04/21 02:24:35;;;;;;;12.00;4.40;;;;;;;3.34;78.02;95356.41;106590;1276;25522;-67
2023/04/21 02:27:04;;;;;;;7.40;4.00;;;;;;;3.32;77.60;95354.32;106552;1276;25397;-67
2023/04/21 02:29:32;;;;;;;10.10;3.90;;;;;;;3.35;77.56;95353.30;106558;1276;22643;-67
2023/04/21 02:32:00;;;;;;;14.50;4.20;;;;;;;3.40;78.03;95348.98;106583;1276;25410;-67
2023/04/21 02:34:41;;;;;;;9.50;4.00;;;;;;;3.42;78.04;95350.73;106472;1276;22636;-67
2023/04/21 02:37:09;;;;;;;12.90;4.20;;;;;;;3.40;78.87;95351.94;106724;1276;24181;-67
2023/04/21 02:39:37;;;;;;;6.70;3.20;;;;;;;3.41;79.51;95350.02;106768;1276;22612;-67
2023/04/21 02:42:05;;;;;;;9.90;3.70;;;;;;;3.37;78.97;95350.17;106741;1276;24380;-67
2023/04/21 02:44:37;;;;;;;10.80;3.40;;;;;;;3.38;78.62;95353.31;106744;1276;22519;-67
2023/04/21 02:47:05;;;;;;;11.50;4.10;;;;;;;3.41;78.39;95352.27;106753;1276;24429;-67
2023/04/21 02:49:33;;;;;;;13.80;4.00;;;;;;;3.53;78.83;95350.60;106484;1276;22520;-67
2023/04/21 02:52:01;;;;;;;13.40;3.70;;;;;;;3.63;78.63;95354.13;106524;1266;22607;-67
2023/04/21 02:54:29;;;;;;;10.70;2.60;;;;;;;3.70;78.42;95355.73;106339;1276;25337;-68
2023/04/21 02:56:57;;;;;;;7.30;3.40;;;;;;;3.62;77.83;95348.04;106427;1276;22643;-67
2023/04/21 02:59:25;;;;;;;9.70;3.50;;;;;;;3.50;77.84;95350.92;106545;1276;25634;-67
2023/04/21 03:01:54;;;;;;;15.00;3.70;;;;;;;3.47;78.56;95346.06;106601;1276;22524;-67
2023/04/21 03:04:24;;;;;;;10.90;3.30;;;;;;;3.52;79.11;95344.34;106667;1276;22639;-67
2023/04/21 03:06:53;;;;;;;11.60;4.20;;;;;;;3.60;79.03;95350.81;106589;1276;22997;-67
2023/04/21 03:09:21;;;;;;;14.90;5.90;;;;;;;3.60;78.39;95356.19;106489;1276;23921;-67
2023/04/21 03:11:49;;;;;;;15.90;6.20;;;;;;;3.61;78.32;95354.29;106665;1276;22530;-67
2023/04/21 03:14:18;;;;;;;11.50;6.70;;;;;;;3.58;78.46;95355.14;106618;1276;22654;-67
2023/04/21 03:16:47;;;;;;;12.90;5.90;;;;;;;3.52;78.46;95359.64;106609;1276;22728;-67
2023/04/21 03:19:15;;;;;;;9.80;5.90;;;;;;;3.38;77.97;95352.95;106556;1276;25351;-67
2023/04/21 03:21:45;;;;;;;13.50;5.20;;;;;;;3.30;78.38;95355.36;106360;1276;22540;-67
2023/04/21 03:24:13;;;;;;;14.00;5.30;;;;;;;3.28;78.27;95357.61;106496;1275;22526;-67
2023/04/21 03:26:41;;;;;;;9.10;4.90;;;;;;;3.24;79.23;95356.02;106619;1275;25548;-67
2023/04/21 03:29:09;;;;;;;11.20;5.70;;;;;;;3.26;79.27;95353.08;106554;1275;25218;-68
2023/04/21 03:31:37;;;;;;;10.40;5.10;;;;;;;3.24;78.93;95351.15;106625;1275;22533;-67
2023/04/21 03:34:06;;;;;;;14.10;5.50;;;;;;;3.28;79.76;95355.88;106673;1275;25454;-67
2023/04/21 03:36:34;;;;;;;14.90;7.50;;;;;;;3.29;79.95;95360.21;106593;1275;22753;-67
2023/04/21 03:39:03;;;;;;;13.50;7.20;;;;;;;3.28;79.52;95356.38;106471;1275;22640;-65
2023/04/21 03:41:47;;;;;;;12.30;6.30;;;;;;;3.28;80.13;95354.65;106649;1275;22524;-66
2023/04/21 03:44:16;;;;;;;12.80;6.00;;;;;;;3.29;80.26;95355.87;106632;1275;25493;-66
2023/04/21 03:46:44;;;;;;;18.50;6.70;;;;;;;3.28;80.36;95357.61;106654;1275;22528;-65
2023/04/21 03:49:12;;;;;;;16.70;7.00;;;;;;;3.29;80.30;95357.44;106604;1275;25461;-65
2023/04/21 03:51:41;;;;;;;10.40;5.10;;;;;;;3.34;80.93;95361.11;106590;1275;22571;-65
2023/04/21 03:54:09;;;;;;;13.50;5.90;;;;;;;3.39;80.58;95361.31;106539;1275;22642;-65
2023/04/21 03:56:37;;;;;;;31.00;15.30;;;;;;;3.42;81.34;95366.36;106566;1275;22518;-65
2023/04/21 03:59:05;;;;;;;31.50;13.40;;;;;;;3.45;81.05;95366.40;106637;1275;23004;-65
2023/04/21 04:01:34;;;;;;;15.30;7.50;;;;;;;3.54;80.67;95364.68;106679;1275;22524;-66
2023/04/21 04:04:02;;;;;;;31.50;11.20;;;;;;;3.62;81.10;95363.52;106627;1275;25290;-66
2023/04/21 04:06:31;;;;;;;18.20;9.60;;;;;;;3.68;81.49;95364.59;106602;1275;22572;-65
2023/04/21 04:09:03;;;;;;;26.10;10.80;;;;;;;3.72;81.70;95368.77;106590;1275;22524;-65
2023/04/21 04:11:31;;;;;;;28.30;13.50;;;;;;;3.83;81.69;95367.42;106348;1275;25467;-65
2023/04/21 04:14:00;;;;;;;30.90;14.70;;;;;;;3.88;80.95;95362.73;106537;1275;22803;-65
2023/04/21 04:16:28;;;;;;;104.70;57.70;;;;;;;3.96;81.42;95365.91;106575;1275;24269;-65
2023/04/21 04:18:56;;;;;;;28.30;15.00;;;;;;;4.10;81.37;95362.98;106611;1275;25361;-66
2023/04/21 04:21:24;;;;;;;21.70;11.30;;;;;;;4.25;81.28;95368.41;106644;1275;22527;-66
2023/04/21 04:23:52;;;;;;;27.00;10.20;;;;;;;4.41;81.13;95371.58;106670;1274;24293;-65
2023/04/21 04:26:24;;;;;;;20.70;10.80;;;;;;;4.57;80.83;95374.73;106720;1274;24256;-66
2023/04/21 04:28:55;;;;;;;32.00;12.70;;;;;;;4.70;80.31;95384.51;106753;1274;22517;-65
2023/04/21 04:31:24;;;;;;;31.90;13.00;;;;;;;4.73;80.05;95382.58;106860;1275;22514;-66
2023/04/21 04:33:52;;;;;;;41.60;17.90;;;;;;;4.71;79.79;95383.11;106760;1275;24495;-65
2023/04/21 04:36:23;;;;;;;32.70;16.40;;;;;;;4.74;80.02;95385.20;106776;1274;25561;-66
2023/04/21 04:38:52;;;;;;;55.50;25.00;;;;;;;4.79;80.03;95388.52;106730;1274;25503;-66
2023/04/21 04:41:21;;;;;;;31.60;16.00;;;;;;;4.88;79.83;95395.66;106602;1275;25594;-66
2023/04/21 04:43:49;;;;;;;25.00;12.90;;;;;;;4.93;79.40;95393.40;106781;1275;24202;-66
2023/04/21 04:46:19;;;;;;;23.20;12.10;;;;;;;4.93;79.47;95394.45;106726;1274;22555;-65
2023/04/21 04:48:47;;;;;;;37.60;16.60;;;;;;;4.93;79.52;95389.05;106743;1275;22577;-66
2023/04/21 04:51:16;;;;;;;50.10;27.20;;;;;;;4.97;79.60;95387.64;106717;1275;24227;-65
2023/04/21 04:53:44;;;;;;;38.70;19.10;;;;;;;5.04;79.75;95395.66;106718;1275;25300;-65
2023/04/21 05:08:07;;;;;;;23.10;10.30;;;;;;;5.76;76.94;95390.80;104453;1304;557580;-67
2023/04/21 05:10:35;;;;;;;16.60;7.30;;;;;;;5.83;77.07;95393.06;105914;1287;149386;-68
2023/04/21 05:13:03;;;;;;;16.20;6.20;;;;;;;5.84;77.16;95390.96;105997;1286;25470;-65
2023/04/21 05:15:31;;;;;;;21.00;7.70;;;;;;;5.86;77.00;95397.24;106269;1280;22538;-67
2023/04/21 05:17:59;;;;;;;15.20;6.20;;;;;;;5.89;76.80;95395.14;106037;1280;22983;-65
2023/04/21 05:20:27;;;;;;;14.20;6.40;;;;;;;5.90;76.81;95391.30;105585;1273;24008;-67
2023/04/21 05:22:55;;;;;;;18.40;8.20;;;;;;;5.92;76.29;95392.86;106001;1280;22539;-65
2023/04/21 05:25:23;;;;;;;15.70;7.00;;;;;;;5.94;76.47;95393.06;106108;1273;22668;-66
2023/04/21 05:27:52;;;;;;;21.80;6.10;;;;;;;5.98;75.89;95387.45;105563;1284;22553;-68
2023/04/21 05:30:20;;;;;;;23.30;9.50;;;;;;;6.00;76.08;95384.48;105899;1284;24241;-67
2023/04/21 05:32:48;;;;;;;29.60;11.70;;;;;;;6.14;76.58;95386.86;106011;1280;24219;-67
2023/04/21 05:35:16;;;;;;;28.10;12.90;;;;;;;6.26;76.51;95385.58;106016;1276;25512;-67
2023/04/21 05:37:44;;;;;;;25.40;16.00;;;;;;;6.44;76.77;95384.60;105997;1280;25369;-68
2023/04/21 05:40:12;;;;;;;19.60;11.00;;;;;;;6.60;76.01;95384.51;106085;1280;25351;-66
2023/04/21 05:42:40;;;;;;;22.30;9.80;;;;;;;6.71;75.10;95383.39;106004;1287;23017;-67
2023/04/21 05:45:09;;;;;;;25.20;9.50;;;;;;;6.78;74.99;95384.03;105979;1287;23902;-66
2023/04/21 05:47:37;;;;;;;22.80;9.10;;;;;;;6.86;74.90;95385.53;105848;1281;24080;-68
2023/04/21 05:50:07;;;;;;;17.70;8.90;;;;;;;6.96;74.78;95391.59;105807;1280;25649;-68
2023/04/21 05:52:36;;;;;;;35.60;17.10;;;;;;;7.02;74.24;95386.48;105902;1284;23875;-69
2023/04/21 05:55:04;;;;;;;39.90;18.90;;;;;;;7.02;73.88;95391.00;105644;1280;22579;-67
2023/04/21 05:57:33;;;;;;;44.70;20.80;;;;;;;7.03;73.86;95395.38;106099;1285;22596;-71
2023/04/21 06:00:01;;;;;;;44.30;18.90;;;;;;;7.03;73.58;95398.35;106038;1280;24290;-68
2023/04/21 06:02:32;;;;;;;27.80;15.50;;;;;;;7.04;73.70;95398.52;105998;1281;22534;-69
2023/04/21 06:05:00;;;;;;;37.00;14.20;;;;;;;7.06;73.73;95402.70;105757;1276;22531;-71
2023/04/21 06:07:29;;;;;;;27.50;10.40;;;;;;;7.08;73.64;95403.56;106250;1281;22538;-68
2023/04/21 06:09:57;;;;;;;32.90;10.90;;;;;;;7.06;72.42;95404.45;105860;1287;22583;-69
2023/04/21 06:12:25;;;;;;;30.40;12.40;;;;;;;7.05;72.92;95401.84;105843;1287;24324;-69
2023/04/21 06:14:56;;;;;;;25.70;11.40;;;;;;;7.09;73.34;95399.17;105757;1287;22698;-69
2023/04/21 06:17:24;;;;;;;19.20;10.10;;;;;;;7.14;73.37;95401.05;106030;1280;23910;-72
2023/04/21 06:19:54;;;;;;;28.40;11.50;;;;;;;7.19;73.49;95398.74;106636;1280;22541;-67
2023/04/21 06:22:23;;;;;;;23.90;10.20;;;;;;;7.22;73.41;95398.71;106529;1280;25289;-68
2023/04/21 06:24:51;;;;;;;34.50;12.00;;;;;;;7.25;73.41;95401.13;106117;1277;22537;-66
2023/04/21 06:27:19;;;;;;;23.90;11.40;;;;;;;7.27;73.35;95400.07;106094;1280;24726;-65
2023/04/21 06:29:47;;;;;;;24.70;11.30;;;;;;;7.30;73.32;95402.31;106669;1280;23206;-69
2023/04/21 06:32:15;;;;;;;24.60;11.70;;;;;;;7.33;73.71;95401.60;106705;1280;22527;-69
2023/04/21 06:34:43;;;;;;;21.60;11.40;;;;;;;7.35;74.10;95402.79;106485;1280;22557;-67
2023/04/21 06:37:12;;;;;;;22.10;12.60;;;;;;;7.38;74.28;95399.27;106358;1273;22540;-68
2023/04/21 06:39:40;;;;;;;25.50;12.00;;;;;;;7.45;74.39;95397.64;106674;1280;22646;-66
2023/04/21 06:42:08;;;;;;;26.90;12.40;;;;;;;7.51;74.41;95396.88;106203;1259;22639;-66
2023/04/21 06:44:42;;;;;;;24.10;12.90;;;;;;;7.59;74.55;95395.39;106072;1280;24363;-66
2023/04/21 06:47:10;;;;;;;42.40;21.10;;;;;;;7.68;74.56;95392.33;106420;1280;22535;-68
2023/04/21 06:49:39;;;;;;;52.30;26.70;;;;;;;7.76;74.82;95390.83;106430;1280;22526;-69
2023/04/21 06:52:07;;;;;;;39.00;20.70;;;;;;;7.84;74.81;95392.85;106297;1280;24259;-69
2023/04/21 06:54:35;;;;;;;37.20;17.70;;;;;;;7.90;74.96;95395.92;105999;1280;22527;-68
2023/04/21 06:57:03;;;;;;;31.50;13.70;;;;;;;7.94;74.43;95396.41;106474;1273;24083;-67
2023/04/21 06:59:33;;;;;;;28.80;13.00;;;;;;;7.96;73.54;95399.19;106371;1277;22596;-67
2023/04/21 07:02:01;;;;;;;29.30;13.30;;;;;;;7.96;73.00;95402.70;106293;1280;24234;-68
2023/04/21 07:04:30;;;;;;;28.20;13.80;;;;;;;7.97;72.79;95400.93;106001;1280;25532;-66
2023/04/21 07:06:59;;;;;;;25.30;13.10;;;;;;;8.00;72.78;95397.22;106129;1280;22676;-66
2023/04/21 07:09:32;;;;;;;21.40;11.20;;;;;;;8.05;72.82;95394.52;108359;1280;22924;-66
2023/04/21 07:12:01;;;;;;;32.00;12.80;;;;;;;8.09;72.66;95397.27;106164;1267;24032;-66
2023/04/21 07:14:30;;;;;;;29.70;11.30;;;;;;;8.12;72.73;95396.20;106309;1280;24230;-66
2023/04/21 07:16:58;;;;;;;25.30;12.10;;;;;;;8.18;72.31;95398.58;106162;1280;24382;-66
2023/04/21 07:19:26;;;;;;;22.10;11.00;;;;;;;8.23;72.20;95398.50;106078;1280;22615;-65
2023/04/21 07:21:54;;;;;;;36.10;11.90;;;;;;;8.33;72.02;95403.84;106266;1280;22478;-66
2023/04/21 07:24:23;;;;;;;26.90;11.20;;;;;;;8.40;70.90;95398.84;106250;1280;24209;-67
2023/04/21 07:26:51;;;;;;;28.30;11.30;;;;;;;8.43;70.69;95397.57;106277;1280;22567;-69
2023/04/21 07:29:19;;;;;;;27.20;11.20;;;;;;;8.48;70.59;95400.66;106295;1280;25229;-67
2023/04/21 07:31:47;;;;;;;27.80;11.10;;;;;;;8.56;70.16;95400.04;106256;1280;24245;-67
2023/04/21 07:34:15;;;;;;;23.20;10.50;;;;;;;8.65;70.22;95398.68;106133;1276;24262;-66
2023/04/21 07:36:43;;;;;;;21.20;9.80;;;;;;;8.76;69.52;95400.27;106560;1271;22524;-69
2023/04/21 07:39:12;;;;;;;24.10;9.30;;;;;;;8.88;69.48;95401.67;106798;1273;22576;-70
2023/04/21 07:41:40;;;;;;;21.40;9.10;;;;;;;9.02;69.55;95402.16;106646;1254;25689;-70
2023/04/21 07:44:08;;;;;;;18.50;8.20;;;;;;;9.18;68.02;95400.69;106512;1269;25409;-65
2023/04/21 07:46:36;;;;;;;15.00;9.00;;;;;;;9.30;67.11;95400.14;106643;1276;22898;-67
2023/04/21 07:49:05;;;;;;;12.70;6.70;;;;;;;9.45;66.65;95397.79;106599;1276;23557;-65
2023/04/21 07:51:33;;;;;;;25.10;9.70;;;;;;;9.62;65.69;95394.67;106511;1276;24370;-67
2023/04/21 07:54:01;;;;;;;14.90;7.20;;;;;;;9.79;64.94;95389.95;106548;1276;24226;-66
2023/04/21 07:56:30;;;;;;;13.10;6.70;;;;;;;9.96;64.33;95386.30;106608;1276;22579;-68
2023/04/21 07:58:58;;;;;;;14.70;6.00;;;;;;;10.13;63.13;95384.90;106995;1276;24222;-68
2023/04/21 08:01:26;;;;;;;11.10;5.60;;;;;;;10.30;62.29;95380.71;106447;1276;22524;-68
2023/04/21 08:03:54;;;;;;;9.50;3.40;;;;;;;10.46;58.38;95383.57;106411;1276;22514;-66
2023/04/21 08:06:23;;;;;;;12.80;5.10;;;;;;;10.63;59.51;95372.64;106436;1276;22570;-66
2023/04/21 08:08:52;;;;;;;11.20;4.30;;;;;;;10.83;61.31;95371.65;106447;1276;22524;-66
2023/04/21 08:11:21;;;;;;;7.70;3.90;;;;;;;11.05;60.21;95367.07;106656;1276;24385;-67
2023/04/21 08:13:49;;;;;;;7.80;3.30;;;;;;;11.18;57.03;95362.70;106605;1276;22527;-66
2023/04/21 08:16:17;;;;;;;6.60;2.10;;;;;;;11.25;53.71;95359.56;106653;1276;22645;-68
2023/04/21 08:18:46;;;;;;;10.00;3.90;;;;;;;11.42;53.86;95357.02;106834;1276;22569;-69
2023/04/21 08:21:14;;;;;;;5.60;3.00;;;;;;;11.59;55.07;95353.55;106968;1269;24202;-66
2023/04/21 08:23:42;;;;;;;8.80;2.60;;;;;;;11.76;54.76;95353.64;106621;1269;24484;-67
2023/04/21 08:26:10;;;;;;;7.80;2.90;;;;;;;12.02;55.57;95352.26;106498;1270;22608;-67
2023/04/21 08:28:38;;;;;;;12.40;3.70;;;;;;;12.21;54.67;95352.92;106506;1270;24352;-68
2023/04/21 08:31:07;;;;;;;4.50;2.90;;;;;;;12.33;53.94;95351.02;108710;1269;22527;-67
2023/04/21 08:33:36;;;;;;;6.90;3.30;;;;;;;12.45;54.57;95348.73;106332;1270;24231;-66
2023/04/21 08:36:17;;;;;;;8.70;3.30;;;;;;;12.61;54.27;95345.77;106343;1269;25778;-68
2023/04/21 08:38:57;;;;;;;8.00;3.30;;;;;;;12.75;51.47;95340.58;106807;1269;22554;-70
2023/04/21 08:41:25;;;;;;;11.00;3.30;;;;;;;12.87;51.47;95339.30;106251;1269;22584;-72
2023/04/21 08:43:54;;;;;;;9.70;3.30;;;;;;;13.01;51.71;95341.36;106918;1270;22577;-69
2023/04/21 08:46:23;;;;;;;11.30;4.00;;;;;;;13.02;49.44;95336.00;106269;1276;24192;-68
2023/04/21 08:48:51;;;;;;;9.60;4.00;;;;;;;13.20;51.79;95336.67;106689;1276;24314;-69
2023/04/21 08:51:26;;;;;;;13.00;3.30;;;;;;;13.51;51.01;95332.66;107065;1276;22519;-69
2023/04/21 08:53:55;;;;;;;6.10;3.10;;;;;;;13.79;50.15;95331.88;106524;1269;22573;-68
2023/04/21 08:56:26;;;;;;;8.10;3.40;;;;;;;14.11;48.84;95328.77;107143;1273;22527;-69
2023/04/21 08:58:55;;;;;;;10.60;4.20;;;;;;;14.32;49.04;95319.31;106324;1269;25463;-67
2023/04/21 09:01:24;;;;;;;8.20;3.60;;;;;;;14.61;49.60;95316.63;106835;1269;22516;-70
2023/04/21 09:03:52;;;;;;;10.20;3.50;;;;;;;14.85;47.24;95315.20;106902;1276;24392;-67
2023/04/21 09:06:20;;;;;;;11.00;3.60;;;;;;;15.02;46.53;95314.30;106538;1276;22517;-68
2023/04/21 09:08:56;;;;;;;12.30;4.20;;;;;;;15.13;45.99;95313.16;106391;1270;24444;-68
2023/04/21 09:11:24;;;;;;;11.10;4.00;;;;;;;15.22;44.79;95312.45;106909;1271;22780;-67
2023/04/21 09:13:55;;;;;;;10.80;3.70;;;;;;;15.28;44.53;95306.17;106480;1276;23148;-66
2023/04/21 09:16:30;;;;;;;10.30;4.20;;;;;;;15.30;44.02;95305.55;106646;1276;22682;-67
2023/04/21 09:19:00;;;;;;;15.00;4.10;;;;;;;15.36;45.19;95307.27;106787;1276;22669;-68
2023/04/21 09:21:28;;;;;;;7.00;3.70;;;;;;;15.45;44.24;95301.93;106679;1265;25333;-67
2023/04/21 09:24:05;;;;;;;11.40;4.90;;;;;;;15.42;43.14;95297.08;106740;1276;22530;-66
2023/04/21 09:26:34;;;;;;;10.30;5.70;;;;;;;15.20;43.10;95301.18;106465;1276;24383;-66
2023/04/21 09:29:06;;;;;;;11.40;3.90;;;;;;;15.08;43.55;95300.12;106518;1276;24210;-67
2023/04/21 09:31:34;;;;;;;11.40;4.00;;;;;;;15.18;44.15;95294.55;106534;1276;22541;-68
2023/04/21 09:34:19;;;;;;;8.90;5.10;;;;;;;15.18;42.13;95293.65;106565;1276;23019;-66
2023/04/21 09:36:48;;;;;;;10.80;4.70;;;;;;;15.27;44.52;95289.90;106563;1276;26553;-66
2023/04/21 09:39:16;;;;;;;13.10;5.20;;;;;;;15.54;44.98;95286.83;106575;1276;22677;-66
2023/04/21 09:41:47;;;;;;;11.00;4.80;;;;;;;15.76;43.61;95280.77;106549;1276;26646;-66
2023/04/21 09:44:16;;;;;;;9.10;4.00;;;;;;;15.93;43.00;95280.20;106513;1276;25403;-66
2023/04/21 09:46:51;;;;;;;11.30;4.40;;;;;;;16.11;43.18;95283.30;106549;1276;22521;-66
2023/04/21 09:49:22;;;;;;;8.30;3.60;;;;;;;16.36;41.65;95280.02;106561;1276;25572;-67
2023/04/21 09:51:51;;;;;;;11.40;3.90;;;;;;;16.47;40.92;95276.14;106591;1276;24348;-67
2023/04/21 09:54:29;;;;;;;13.40;4.30;;;;;;;16.50;39.32;95276.70;106555;1267;22653;-67
2023/04/21 09:57:00;;;;;;;17.20;3.90;;;;;;;16.50;39.91;95270.34;106590;1276;22598;-67
2023/04/21 09:59:33;;;;;;;13.10;4.20;;;;;;;16.73;40.32;95278.27;106552;1276;25278;-67
2023/04/21 10:02:06;;;;;;;15.60;4.00;;;;;;;16.91;39.33;95273.54;106579;1276;22513;-67
2023/04/21 10:04:36;;;;;;;8.80;3.50;;;;;;;16.97;38.51;95269.86;106490;1276;25456;-67
2023/04/21 10:07:05;;;;;;;9.80;3.80;;;;;;;16.76;39.35;95269.11;106636;1276;22523;-66
2023/04/21 10:09:46;;;;;;;10.70;4.60;;;;;;;16.73;39.81;95268.19;106567;1276;22639;-67
2023/04/21 10:12:14;;;;;;;9.40;3.70;;;;;;;16.91;38.70;95267.48;106558;1276;23911;-66
2023/04/21 10:14:42;;;;;;;8.30;4.30;;;;;;;17.19;39.80;95270.94;106496;1276;24254;-67
2023/04/21 10:17:11;;;;;;;9.60;4.20;;;;;;;17.46;38.74;95270.09;106583;1276;25476;-67
2023/04/21 10:19:49;;;;;;;8.10;3.40;;;;;;;17.72;38.43;95266.97;106604;1276;22545;-66
2023/04/21 10:22:32;;;;;;;7.70;3.40;;;;;;;18.05;39.39;95260.48;106552;1276;22804;-67
2023/04/21 10:25:03;;;;;;;12.20;3.90;;;;;;;18.33;38.48;95265.39;106570;1276;23141;-66
2023/04/21 10:27:41;;;;;;;9.90;4.20;;;;;;;18.51;37.70;95259.77;106581;1276;22526;-66
2023/04/21 10:30:22;;;;;;;16.30;3.70;;;;;;;18.23;34.84;95257.90;106554;1276;22527;-66
2023/04/21 10:33:02;;;;;;;11.90;5.00;;;;;;;17.87;35.30;95265.70;106574;1276;22537;-66
2023/04/21 10:36:10;;;;;;;12.10;4.30;;;;;;;17.33;34.41;95268.97;106523;1276;22520;-66
2023/04/21 10:38:40;;;;;;;7.80;3.90;;;;;;;17.01;36.13;95270.36;106101;1283;22539;-67
2023/04/21 10:52:15;;;;;;;12.90;4.60;;;;;;;18.42;36.00;95253.27;104721;1304;557378;-65
2023/04/21 10:55:05;;;;;;;14.40;4.40;;;;;;;18.88;36.58;95246.54;106180;1285;156162;-66
2023/04/21 10:57:34;;;;;;;11.40;4.40;;;;;;;19.00;33.81;95239.27;106295;1285;22947;-66
2023/04/21 11:00:05;;;;;;;16.60;6.90;;;;;;;19.02;33.05;95236.80;106353;1285;24366;-66
2023/04/21 11:02:35;;;;;;;9.30;4.60;;;;;;;19.16;32.56;95240.28;106250;1285;25584;-66
2023/04/21 11:05:08;;;;;;;5.40;3.90;;;;;;;18.88;31.32;95244.70;106757;1278;24153;-66
2023/04/21 11:07:37;;;;;;;9.60;3.60;;;;;;;18.44;32.03;95250.41;107075;1274;22517;-66
2023/04/21 11:10:07;;;;;;;7.20;4.20;;;;;;;18.12;32.86;95251.22;107058;1274;25392;-66
2023/04/21 11:12:40;;;;;;;6.90;3.90;;;;;;;17.85;33.05;95254.41;106903;1274;22535;-66
2023/04/21 11:15:10;;;;;;;8.50;4.00;;;;;;;17.62;32.62;95256.81;106622;1273;22530;-66
2023/04/21 11:17:42;;;;;;;7.10;3.70;;;;;;;17.33;33.06;95256.86;107055;1274;24220;-66
2023/04/21 11:20:10;;;;;;;8.40;4.20;;;;;;;17.20;33.75;95265.38;106660;1274;22516;-66
2023/04/21 11:22:39;;;;;;;10.80;4.30;;;;;;;17.10;33.91;95259.80;106895;1274;24252;-66
2023/04/21 11:25:17;;;;;;;8.50;4.00;;;;;;;16.99;35.61;95264.25;107007;1274;24196;-66
2023/04/21 11:27:56;;;;;;;7.70;3.70;;;;;;;17.14;35.11;95265.50;106781;1274;24051;-66
2023/04/21 11:30:34;;;;;;;6.20;4.10;;;;;;;17.63;34.29;95254.98;106668;1274;25396;-66
2023/04/21 11:33:03;;;;;;;7.70;4.10;;;;;;;18.22;33.64;95252.11;106791;1274;24092;-66
2023/04/21 11:35:31;;;;;;;8.20;3.80;;;;;;;18.78;33.71;95251.33;106758;1274;24196;-66
2023/04/21 11:38:04;;;;;;;7.90;3.80;;;;;;;19.27;32.33;95244.29;106836;1274;25309;-66
2023/04/21 11:40:50;;;;;;;7.80;4.10;;;;;;;19.51;30.82;95248.61;106825;1274;25203;-66
2023/04/21 11:43:20;;;;;;;11.70;3.80;;;;;;;19.68;30.79;95244.20;106748;1273;24371;-66
2023/04/21 11:45:49;;;;;;;9.90;4.20;;;;;;;20.05;29.88;95243.23;106832;1274;26643;-67
2023/04/21 11:48:21;;;;;;;8.30;3.80;;;;;;;19.83;29.06;95248.34;106848;1274;22573;-66
2023/04/21 11:50:49;;;;;;;5.20;4.00;;;;;;;19.30;29.71;95251.58;106611;1274;24080;-66
2023/04/21 11:53:18;;;;;;;10.10;4.50;;;;;;;18.94;30.77;95253.67;106811;1274;24206;-67
2023/04/21 11:55:47;;;;;;;8.20;4.10;;;;;;;18.44;29.78;95253.59;106822;1274;25306;-66